KBEC

Beech Factory Airport

Wichita, Kansas, USA
METAR KBEC 151835Z AUTO 21008KT 10SM CLR 11/01 A2998 RMK AO2 T01070012
Observed Flight Rules
Nov-15 @ 18:35 UTC (22 minutes ago) Visual Flight Rules
Wind Visibility Clouds
210° at 8 knots 10 miles
  • Clear skies
Temperatures Readings
Current 11°C / 52°F
Dewpoint 1°C / 34°F
Humidity 50%
Altimeter 29.98" Hg
Pressure 1015 hPa
Elevation 429
METAR KBEC 151835Z AUTO 21008KT 10SM CLR 11/01 A2998 RMK AO2 T01070012
Observed Flight Rules
Nov-15 @ 18:35 UTC
(22 minutes ago)
VFR
Wind Visibility
210° at 8 knots 10 miles
Clouds
  • Clear skies
Temperature Dewpoint
11°C / 52°F 1°C / 34°F
Humidity Altimeter Pressure
50% 29.98" Hg 1015 hPa